createdAt,value
2017-10-23T00:00:58.504Z,65.10
2017-10-23T00:03:26.276Z,65.20
2017-10-23T00:05:54.126Z,65.20
2017-10-23T00:08:22.040Z,65.20
2017-10-23T00:10:49.939Z,65.10
2017-10-23T00:13:18.582Z,65.10
2017-10-23T00:15:46.529Z,65.10
2017-10-23T00:18:14.801Z,65.30
2017-10-23T00:20:42.656Z,65.50
2017-10-23T00:23:10.552Z,65.50
2017-10-23T00:25:38.457Z,65.20
2017-10-23T00:28:07.053Z,65.50
2017-10-23T00:30:35.728Z,65.30
2017-10-23T00:33:04.349Z,65.20
2017-10-23T00:35:32.175Z,65.20
2017-10-23T00:38:00.874Z,65.30
2017-10-23T00:40:28.713Z,65.30
2017-10-23T00:42:56.547Z,65.40
2017-10-23T00:45:24.384Z,65.60
2017-10-23T00:47:52.208Z,65.70
2017-10-23T00:50:20.136Z,65.60
2017-10-23T00:52:48.027Z,65.50
2017-10-23T00:55:16.087Z,65.40
2017-10-23T00:57:44.258Z,64.90
2017-10-23T01:00:12.188Z,64.90
2017-10-23T01:02:40.077Z,64.90
2017-10-23T01:05:08.069Z,65.00
2017-10-23T01:07:36.048Z,65.10
2017-10-23T01:10:04.468Z,64.90
2017-10-23T01:12:33.128Z,64.70
2017-10-23T01:15:01.046Z,64.70
2017-10-23T01:17:28.876Z,64.70
2017-10-23T01:19:57.589Z,64.70
2017-10-23T01:22:25.598Z,64.70
2017-10-23T01:24:53.572Z,64.70
2017-10-23T01:27:21.568Z,64.80
2017-10-23T01:29:50.243Z,64.70
2017-10-23T01:32:18.947Z,64.50
2017-10-23T01:34:46.872Z,64.50
2017-10-23T01:37:14.720Z,64.70
2017-10-23T01:39:42.757Z,64.80
2017-10-23T01:42:10.858Z,64.80
2017-10-23T01:44:38.880Z,64.70
2017-10-23T01:47:07.597Z,64.80
2017-10-23T01:49:36.576Z,64.80
2017-10-23T01:52:05.217Z,64.70
2017-10-23T01:54:33.187Z,64.70
2017-10-23T01:57:01.148Z,64.70
2017-10-23T01:59:29.639Z,64.80
2017-10-23T02:01:57.562Z,64.90
2017-10-23T02:04:25.504Z,65.10
2017-10-23T02:06:54.096Z,65.00
2017-10-23T02:09:22.711Z,64.90
2017-10-23T02:11:50.603Z,64.90
2017-10-23T02:14:18.427Z,64.80
2017-10-23T02:16:46.361Z,64.70
2017-10-23T02:19:15.029Z,64.90
2017-10-23T02:21:42.930Z,65.00
2017-10-23T02:24:11.492Z,64.80
2017-10-23T02:26:39.376Z,64.80
2017-10-23T02:29:07.928Z,64.80
2017-10-23T02:31:35.735Z,64.80
2017-10-23T02:34:04.384Z,65.00
2017-10-23T02:36:32.258Z,64.90
2017-10-23T02:39:00.123Z,64.90
2017-10-23T02:41:28.731Z,64.90
2017-10-23T02:43:57.321Z,65.00
2017-10-23T02:46:25.149Z,64.90
2017-10-23T02:48:53.054Z,64.90
2017-10-23T02:51:20.948Z,65.00
2017-10-23T02:53:48.740Z,65.10
2017-10-23T02:56:16.644Z,65.10
2017-10-23T02:58:44.438Z,65.10
2017-10-23T03:01:12.454Z,65.10
2017-10-23T03:03:40.494Z,65.10
2017-10-23T03:06:08.322Z,64.80
2017-10-23T03:08:36.157Z,65.00
2017-10-23T03:11:04.125Z,65.00
2017-10-23T03:13:32.040Z,65.00
2017-10-23T03:16:00.044Z,65.10
2017-10-23T03:18:28.024Z,65.10
2017-10-23T03:20:56.049Z,64.90
2017-10-23T03:23:24.145Z,65.00
2017-10-23T03:25:52.179Z,65.00
2017-10-23T03:28:20.110Z,64.90
2017-10-23T03:30:48.077Z,64.80
2017-10-23T03:33:16.243Z,64.80
2017-10-23T03:35:44.157Z,64.90
2017-10-23T03:38:12.022Z,65.00
2017-10-23T03:40:39.961Z,64.90
2017-10-23T03:43:07.852Z,65.00
2017-10-23T03:45:35.973Z,65.10
2017-10-23T03:48:03.886Z,65.10
2017-10-23T03:50:32.576Z,65.00
2017-10-23T03:53:00.490Z,65.00
2017-10-23T03:55:28.395Z,65.10
2017-10-23T03:57:57.053Z,65.20
2017-10-23T04:00:24.895Z,65.20
2017-10-23T04:02:52.886Z,65.10
2017-10-23T04:05:20.873Z,65.10
2017-10-23T04:07:48.756Z,65.20
2017-10-23T04:10:17.461Z,65.20
2017-10-23T04:12:45.473Z,65.20
2017-10-23T04:15:13.737Z,65.20
2017-10-23T04:17:41.628Z,65.10
2017-10-23T04:20:09.783Z,65.10
2017-10-23T04:22:38.528Z,65.20
2017-10-23T04:25:06.681Z,65.20
2017-10-23T04:27:35.448Z,65.50
2017-10-23T04:30:03.330Z,65.50
2017-10-23T04:32:31.273Z,65.50
2017-10-23T04:34:59.299Z,65.40
2017-10-23T04:37:27.197Z,65.40
2017-10-23T04:39:55.140Z,65.50
2017-10-23T04:42:23.098Z,65.60
2017-10-23T04:44:51.001Z,65.50
2017-10-23T04:47:19.669Z,65.40
2017-10-23T04:49:47.585Z,65.50
2017-10-23T04:52:15.626Z,65.50
2017-10-23T04:54:43.509Z,65.40
2017-10-23T04:57:12.947Z,65.50
2017-10-23T04:59:41.844Z,65.60
2017-10-23T05:02:09.890Z,65.40
2017-10-23T05:04:37.963Z,65.40
2017-10-23T05:07:06.654Z,65.40
2017-10-23T05:09:35.404Z,65.20
2017-10-23T05:12:03.589Z,65.20
2017-10-23T05:14:31.493Z,65.30
2017-10-23T05:17:00.250Z,65.30
2017-10-23T05:19:28.217Z,65.30
2017-10-23T05:21:56.141Z,65.20
2017-10-23T05:24:24.088Z,65.30
2017-10-23T05:26:52.746Z,65.30
2017-10-23T05:29:20.731Z,65.30
2017-10-23T05:31:49.452Z,65.30
2017-10-23T05:34:17.456Z,65.30
2017-10-23T05:36:45.322Z,65.30
2017-10-23T05:39:13.461Z,65.30
2017-10-23T05:41:41.716Z,65.30
2017-10-23T05:44:09.699Z,65.40
2017-10-23T05:46:37.856Z,65.40
2017-10-23T05:49:05.788Z,65.40
2017-10-23T05:51:33.750Z,65.40
2017-10-23T05:54:01.741Z,65.20
2017-10-23T05:56:31.483Z,65.40
2017-10-23T05:59:00.461Z,65.40
2017-10-23T06:01:28.547Z,65.40
2017-10-23T06:03:56.486Z,65.40
2017-10-23T06:06:25.272Z,65.30
2017-10-23T06:08:54.031Z,65.20
2017-10-23T06:11:21.902Z,65.20
2017-10-23T06:13:49.860Z,65.20
2017-10-23T06:16:17.792Z,65.10
2017-10-23T06:18:45.729Z,65.10
2017-10-23T06:21:13.687Z,65.10
2017-10-23T06:23:41.736Z,65.20
2017-10-23T06:26:09.758Z,65.10
2017-10-23T06:28:38.461Z,65.00
2017-10-23T06:31:06.454Z,65.00
2017-10-23T06:33:34.343Z,64.80
2017-10-23T06:36:02.209Z,64.80
2017-10-23T06:38:30.163Z,64.70
2017-10-23T06:40:58.140Z,64.60
2017-10-23T06:43:25.985Z,64.50
2017-10-23T06:45:54.236Z,64.40
2017-10-23T06:48:22.147Z,64.30
2017-10-23T06:50:50.289Z,64.20
2017-10-23T06:53:18.229Z,64.30
2017-10-23T06:55:47.008Z,64.40
2017-10-23T06:58:15.777Z,64.50
2017-10-23T07:00:43.744Z,64.60
2017-10-23T07:03:11.760Z,64.60
2017-10-23T07:05:39.637Z,64.80
2017-10-23T07:08:07.616Z,64.70
2017-10-23T07:10:35.592Z,64.60
2017-10-23T07:13:03.531Z,64.60
2017-10-23T07:15:31.499Z,64.40
2017-10-23T07:17:59.524Z,64.40
2017-10-23T07:20:27.406Z,64.40
2017-10-23T07:22:56.238Z,64.70
2017-10-23T07:25:24.144Z,64.60
2017-10-23T07:27:52.031Z,64.60
2017-10-23T07:30:20.687Z,64.70
2017-10-23T07:32:48.540Z,64.70
2017-10-23T07:35:16.450Z,64.70
2017-10-23T07:37:45.093Z,64.80
2017-10-23T07:40:12.994Z,64.70
2017-10-23T07:42:41.613Z,64.70
2017-10-23T07:45:09.546Z,64.70
2017-10-23T07:47:37.450Z,64.70
2017-10-23T07:50:05.474Z,64.60
2017-10-23T07:52:33.384Z,64.30
2017-10-23T07:55:01.324Z,64.10
2017-10-23T07:57:29.915Z,63.50
2017-10-23T07:59:58.593Z,63.50
2017-10-23T08:02:27.327Z,64.30
2017-10-23T08:04:55.392Z,63.60
2017-10-23T08:07:23.285Z,63.20
2017-10-23T08:09:51.924Z,62.50
2017-10-23T08:12:19.777Z,62.50
2017-10-23T08:14:48.439Z,62.20
2017-10-23T08:17:16.308Z,62.20
2017-10-23T08:19:44.125Z,61.40
2017-10-23T08:22:11.952Z,61.40
2017-10-23T08:24:40.665Z,60.90
2017-10-23T08:27:08.540Z,60.90
2017-10-23T08:29:36.359Z,60.80
2017-10-23T08:32:04.235Z,60.80
2017-10-23T08:34:32.840Z,60.20
2017-10-23T08:37:00.766Z,60.10
2017-10-23T08:39:28.600Z,60.10
2017-10-23T08:41:56.464Z,59.70
2017-10-23T08:44:24.325Z,59.50
2017-10-23T08:46:52.404Z,59.30
2017-10-23T08:49:20.263Z,59.20
2017-10-23T08:51:48.219Z,59.20
2017-10-23T08:54:16.251Z,58.90
2017-10-23T08:56:44.170Z,58.60
2017-10-23T08:59:12.123Z,58.20
2017-10-23T09:01:40.071Z,58.20
2017-10-23T09:04:08.747Z,57.90
2017-10-23T09:06:36.594Z,58.50
2017-10-23T09:09:04.580Z,57.90
2017-10-23T09:11:33.171Z,57.30
2017-10-23T09:14:02.162Z,57.50
2017-10-23T09:16:30.841Z,57.30
2017-10-23T09:18:58.763Z,57.20
2017-10-23T09:21:26.946Z,57.40
2017-10-23T09:23:54.824Z,57.00
2017-10-23T09:26:22.656Z,56.70
2017-10-23T09:28:50.508Z,56.80
2017-10-23T09:31:18.450Z,57.10
2017-10-23T09:33:47.050Z,57.00
2017-10-23T09:36:15.739Z,56.90
2017-10-23T09:38:44.321Z,56.70
2017-10-23T09:41:12.918Z,56.90
2017-10-23T09:43:40.811Z,56.90
2017-10-23T09:46:08.595Z,57.20
2017-10-23T09:48:36.418Z,57.00
2017-10-23T09:51:04.247Z,57.30
2017-10-23T09:53:32.155Z,57.40
2017-10-23T09:56:00.031Z,57.50
2017-10-23T09:58:28.726Z,57.60
2017-10-23T10:00:59.351Z,57.60
2017-10-23T10:03:27.256Z,57.60
2017-10-23T10:05:56.073Z,57.80
2017-10-23T10:08:24.635Z,59.00
2017-10-23T10:10:52.505Z,58.40
2017-10-23T10:13:20.425Z,58.40
2017-10-23T10:15:48.439Z,58.70
2017-10-23T10:18:16.256Z,58.80
2017-10-23T10:20:44.501Z,59.10
2017-10-23T10:23:12.358Z,58.30
2017-10-23T10:25:41.290Z,58.00
2017-10-23T10:28:10.153Z,58.30
2017-10-23T10:30:38.210Z,58.00
2017-10-23T10:33:06.164Z,57.80
2017-10-23T10:35:34.093Z,57.00
2017-10-23T10:38:02.059Z,56.50
2017-10-23T10:40:30.344Z,56.50
2017-10-23T10:42:58.336Z,56.40
2017-10-23T10:45:26.970Z,54.90
2017-10-23T10:47:54.966Z,54.90
2017-10-23T10:50:23.020Z,55.00
2017-10-23T10:52:51.075Z,55.80
2017-10-23T10:55:19.023Z,56.20
2017-10-23T10:57:47.712Z,56.50
2017-10-23T11:00:16.522Z,56.60
2017-10-23T11:02:45.515Z,57.00
2017-10-23T11:05:13.471Z,56.40
2017-10-23T11:07:42.228Z,56.60
2017-10-23T11:10:10.232Z,56.60
2017-10-23T11:12:38.342Z,56.00
2017-10-23T11:15:06.417Z,56.40
2017-10-23T11:17:35.114Z,56.50
2017-10-23T11:20:03.128Z,56.70
2017-10-23T11:22:31.146Z,56.80
2017-10-23T11:24:59.227Z,56.70
2017-10-23T11:27:27.194Z,56.80
2017-10-23T11:29:55.142Z,56.60
2017-10-23T11:32:23.006Z,56.00
2017-10-23T11:34:50.836Z,56.50
2017-10-23T11:37:18.729Z,56.70
2017-10-23T11:39:46.547Z,57.40
2017-10-23T11:42:15.170Z,58.30
2017-10-23T11:44:43.036Z,58.30
2017-10-23T11:47:10.916Z,58.70
2017-10-23T11:49:38.855Z,58.70
2017-10-23T11:52:06.676Z,58.60
2017-10-23T11:54:34.510Z,58.70
2017-10-23T11:57:02.356Z,58.90
2017-10-23T11:59:30.168Z,58.80
2017-10-23T12:01:57.977Z,59.00
2017-10-23T12:04:26.590Z,58.70
2017-10-23T12:06:54.444Z,58.70
2017-10-23T12:09:22.253Z,58.70
2017-10-23T12:11:50.094Z,59.10
2017-10-23T12:14:19.469Z,59.70
2017-10-23T12:16:48.723Z,59.80
2017-10-23T12:19:16.712Z,60.20
2017-10-23T12:21:45.365Z,61.80
2017-10-23T12:24:13.282Z,61.10
2017-10-23T12:26:42.071Z,62.20
2017-10-23T12:29:09.974Z,62.20
2017-10-23T12:31:39.429Z,62.00
2017-10-23T12:34:07.368Z,62.10
2017-10-23T12:36:35.213Z,62.20
2017-10-23T12:39:03.252Z,61.90
2017-10-23T12:41:31.162Z,60.80
2017-10-23T12:43:59.149Z,60.80
2017-10-23T12:46:27.039Z,60.60
2017-10-23T12:48:55.651Z,60.50
2017-10-23T12:51:24.377Z,60.40
2017-10-23T12:53:52.377Z,59.90
2017-10-23T12:56:20.937Z,60.50
2017-10-23T12:58:49.047Z,60.50
2017-10-23T13:01:16.944Z,60.90
2017-10-23T13:03:44.814Z,61.30
2017-10-23T13:06:12.660Z,62.30
2017-10-23T13:08:40.603Z,62.60
2017-10-23T13:11:08.756Z,61.90
2017-10-23T13:13:36.783Z,62.70
2017-10-23T13:16:04.627Z,63.00
2017-10-23T13:18:32.535Z,62.90
2017-10-23T13:21:00.473Z,63.00
2017-10-23T13:23:28.399Z,63.20
2017-10-23T13:25:56.395Z,63.40
2017-10-23T13:28:25.110Z,63.30
2017-10-23T13:30:53.577Z,63.30
2017-10-23T13:33:22.271Z,63.00
2017-10-23T13:35:50.181Z,62.90
2017-10-23T13:38:18.793Z,64.80
2017-10-23T13:40:47.479Z,64.10
2017-10-23T13:43:16.092Z,64.10
2017-10-23T13:45:43.964Z,64.10
2017-10-23T13:48:11.852Z,63.90
2017-10-23T13:50:43.277Z,63.90
2017-10-23T13:53:11.351Z,63.50
2017-10-23T13:55:43.939Z,63.20
2017-10-23T13:58:12.941Z,63.90
2017-10-23T14:00:40.965Z,63.90
2017-10-23T14:03:09.067Z,64.20
2017-10-23T14:05:36.957Z,64.20
2017-10-23T14:08:04.801Z,63.90
2017-10-23T14:10:32.695Z,64.30
2017-10-23T14:13:00.628Z,64.60
2017-10-23T14:15:28.490Z,64.90
2017-10-23T14:17:56.491Z,64.90
2017-10-23T14:20:24.454Z,64.80
2017-10-23T14:22:52.447Z,64.90
2017-10-23T14:25:20.679Z,64.90
2017-10-23T14:27:48.628Z,64.80
2017-10-23T14:30:16.541Z,64.60
2017-10-23T14:32:44.513Z,64.70
2017-10-23T14:35:12.448Z,65.70
2017-10-23T14:37:40.472Z,65.20
2017-10-23T14:40:09.558Z,65.80
2017-10-23T14:42:38.301Z,66.00
2017-10-23T14:45:06.372Z,66.00
2017-10-23T14:47:34.355Z,66.00
2017-10-23T14:50:02.368Z,66.20
2017-10-23T14:52:31.511Z,66.30
2017-10-23T14:54:59.712Z,66.30
2017-10-23T14:57:30.212Z,65.90
2017-10-23T14:59:59.099Z,65.00
2017-10-23T15:02:27.037Z,65.00
2017-10-23T15:04:55.739Z,64.90
2017-10-23T15:07:23.861Z,64.90
2017-10-23T15:09:51.755Z,64.90
2017-10-23T15:12:21.460Z,64.90
2017-10-23T15:14:52.844Z,64.80
2017-10-23T15:17:20.805Z,64.80
2017-10-23T15:19:48.975Z,64.70
2017-10-23T15:22:16.830Z,64.70
2017-10-23T15:24:44.679Z,64.90
2017-10-23T15:27:13.435Z,64.80
2017-10-23T15:29:41.267Z,64.70
2017-10-23T15:32:09.098Z,64.50
2017-10-23T15:34:37.781Z,64.60
2017-10-23T15:37:06.420Z,64.60
2017-10-23T15:39:34.397Z,64.50
2017-10-23T15:42:02.409Z,64.60
2017-10-23T15:44:31.013Z,64.70
2017-10-23T15:46:58.879Z,64.70
2017-10-23T15:49:27.399Z,64.40
2017-10-23T15:51:56.064Z,64.60
2017-10-23T15:54:23.964Z,64.60
2017-10-23T15:56:51.780Z,64.70
2017-10-23T15:59:19.561Z,65.10
2017-10-23T16:01:47.727Z,65.90
2017-10-23T16:04:15.597Z,66.00
2017-10-23T16:06:44.165Z,66.20
2017-10-23T16:09:12.074Z,66.20
2017-10-23T16:11:39.888Z,65.90
2017-10-23T16:14:08.563Z,65.50
2017-10-23T16:16:37.291Z,65.30
2017-10-23T16:19:05.138Z,65.30
2017-10-23T16:21:33.057Z,65.30
2017-10-23T16:24:01.003Z,65.30
2017-10-23T16:26:28.837Z,65.60
2017-10-23T16:28:56.761Z,65.60
2017-10-23T16:31:24.578Z,65.70
2017-10-23T16:33:52.527Z,65.70
2017-10-23T16:36:21.219Z,66.00
2017-10-23T16:38:49.821Z,66.00
2017-10-23T16:41:17.803Z,66.00
2017-10-23T16:43:45.705Z,66.00
2017-10-23T16:46:13.647Z,66.00
2017-10-23T16:48:41.578Z,65.90
2017-10-23T16:51:09.429Z,65.90
2017-10-23T16:53:38.186Z,65.90
2017-10-23T16:56:06.118Z,65.80
2017-10-23T16:58:34.017Z,65.70
2017-10-23T17:01:01.934Z,66.00
2017-10-23T17:03:29.895Z,66.20
2017-10-23T17:05:58.590Z,66.10
2017-10-23T17:08:26.488Z,66.10
2017-10-23T17:10:54.399Z,66.10
2017-10-23T17:13:23.029Z,66.30
2017-10-23T17:15:51.021Z,66.20
2017-10-23T17:18:18.935Z,66.30
2017-10-23T17:20:47.708Z,66.20
2017-10-23T17:23:16.326Z,66.30
2017-10-23T17:25:44.311Z,66.30
2017-10-23T17:28:12.188Z,66.30
2017-10-23T17:30:40.098Z,66.30
2017-10-23T17:33:08.965Z,66.50
2017-10-23T17:35:37.148Z,66.40
2017-10-23T17:38:05.046Z,66.40
2017-10-23T17:40:32.920Z,66.40
2017-10-23T17:43:00.824Z,66.20
2017-10-23T17:45:28.778Z,66.00
2017-10-23T17:47:56.594Z,66.40
2017-10-23T17:50:25.221Z,66.40
2017-10-23T17:52:53.019Z,66.20
2017-10-23T17:55:20.869Z,66.30
2017-10-23T17:57:48.739Z,66.20
2017-10-23T18:00:16.583Z,66.10
2017-10-23T18:02:44.624Z,66.10
2017-10-23T18:05:13.236Z,66.20
2017-10-23T18:07:41.308Z,66.30
2017-10-23T18:10:09.254Z,66.30
2017-10-23T18:12:37.111Z,66.20
2017-10-23T18:15:05.713Z,66.40
2017-10-23T18:17:33.573Z,66.40
2017-10-23T18:20:01.489Z,66.30
2017-10-23T18:22:29.436Z,66.40
2017-10-23T18:24:57.239Z,66.30
2017-10-23T18:27:25.222Z,66.00
2017-10-23T18:29:53.863Z,65.70
2017-10-23T18:32:21.683Z,65.70
2017-10-23T18:34:50.309Z,66.00
2017-10-23T18:37:18.823Z,65.20
2017-10-23T18:39:46.734Z,65.20
2017-10-23T18:42:14.547Z,65.00
2017-10-23T18:44:42.483Z,64.90
2017-10-23T18:47:10.330Z,64.60
2017-10-23T18:49:38.188Z,65.10
2017-10-23T18:52:06.075Z,64.50
2017-10-23T18:54:33.955Z,64.60
2017-10-23T18:57:01.871Z,64.80
2017-10-23T18:59:30.637Z,64.50
2017-10-23T19:01:58.459Z,64.50
2017-10-23T19:04:26.321Z,64.30
2017-10-23T19:09:27.429Z,64.40
2017-10-23T19:11:55.665Z,64.40
2017-10-23T19:14:23.505Z,64.30
2017-10-23T19:16:52.179Z,64.80
2017-10-23T19:19:22.539Z,64.80
2017-10-23T19:21:50.535Z,64.80
2017-10-23T19:24:19.679Z,64.60
2017-10-23T19:26:48.319Z,65.00
2017-10-23T19:29:16.285Z,65.00
2017-10-23T19:31:44.211Z,64.70
2017-10-23T19:34:12.227Z,64.30
2017-10-23T19:36:40.074Z,64.10
2017-10-23T19:39:08.097Z,64.20
2017-10-23T19:41:35.980Z,64.40
2017-10-23T19:44:03.880Z,64.70
2017-10-23T19:46:31.807Z,64.90
2017-10-23T19:48:59.637Z,64.60
2017-10-23T19:51:27.565Z,64.30
2017-10-23T19:53:55.432Z,64.10
2017-10-23T19:56:23.346Z,63.70
2017-10-23T19:58:51.315Z,63.40
2017-10-23T20:01:19.187Z,63.40
2017-10-23T20:03:47.303Z,63.70
2017-10-23T20:06:15.441Z,63.70
2017-10-23T20:08:44.157Z,63.50
2017-10-23T20:11:12.351Z,63.50
2017-10-23T20:13:40.393Z,63.50
2017-10-23T20:16:09.323Z,63.30
2017-10-23T20:18:39.975Z,63.30
2017-10-23T20:21:07.908Z,63.30
2017-10-23T20:23:35.909Z,63.40
2017-10-23T20:26:03.853Z,63.40
2017-10-23T20:28:31.905Z,63.40
2017-10-23T20:30:59.739Z,63.30
2017-10-23T20:33:28.520Z,63.70
2017-10-23T20:35:56.341Z,63.50
2017-10-23T20:38:24.136Z,63.60
2017-10-23T20:40:51.957Z,63.40
2017-10-23T20:43:19.822Z,63.50
2017-10-23T20:45:47.719Z,63.40
2017-10-23T20:48:15.578Z,63.30
2017-10-23T20:50:43.388Z,63.40
2017-10-23T20:53:12.418Z,63.40
2017-10-23T20:55:40.257Z,63.40
2017-10-23T20:58:08.951Z,63.40
2017-10-23T21:00:37.803Z,63.40
2017-10-23T21:03:05.667Z,64.10
2017-10-23T21:05:33.535Z,63.40
2017-10-23T21:08:01.316Z,63.40
2017-10-23T21:10:29.164Z,63.40
2017-10-23T21:12:57.091Z,64.20
2017-10-23T21:15:24.892Z,63.50
2017-10-23T21:17:52.685Z,63.60
2017-10-23T21:20:21.387Z,63.50
2017-10-23T21:22:49.975Z,63.60
2017-10-23T21:25:17.824Z,63.50
2017-10-23T21:27:46.423Z,63.50
2017-10-23T21:30:14.237Z,63.60
2017-10-23T21:32:42.032Z,63.60
2017-10-23T21:35:10.604Z,63.80
2017-10-23T21:37:38.479Z,63.70
2017-10-23T21:40:07.051Z,63.90
2017-10-23T21:42:34.918Z,63.80
2017-10-23T21:45:02.743Z,63.70
2017-10-23T21:47:30.525Z,63.90
2017-10-23T21:49:58.349Z,63.80
2017-10-23T21:52:26.192Z,63.60
2017-10-23T21:54:54.831Z,63.80
2017-10-23T21:57:22.661Z,63.80
2017-10-23T21:59:50.448Z,63.80
2017-10-23T22:02:18.303Z,64.30
2017-10-23T22:04:46.151Z,64.10
2017-10-23T22:07:14.791Z,64.00
2017-10-23T22:09:42.631Z,64.00
2017-10-23T22:12:10.461Z,63.90
2017-10-23T22:14:39.144Z,64.10
2017-10-23T22:17:07.701Z,64.00
2017-10-23T22:19:35.568Z,64.00
2017-10-23T22:22:03.480Z,63.90
2017-10-23T22:24:31.283Z,64.10
2017-10-23T22:26:59.203Z,64.10
2017-10-23T22:29:27.756Z,64.10
2017-10-23T22:31:55.606Z,64.20
2017-10-23T22:34:23.397Z,64.30
2017-10-23T22:36:52.036Z,64.50
2017-10-23T22:39:19.944Z,64.40
2017-10-23T22:41:48.580Z,65.20
2017-10-23T22:44:17.284Z,64.50
2017-10-23T22:46:45.883Z,64.50
2017-10-23T22:49:13.781Z,64.60
2017-10-23T22:51:42.441Z,64.40
2017-10-23T22:54:10.376Z,64.30
2017-10-23T22:56:38.534Z,64.30
2017-10-23T22:59:06.476Z,64.30
2017-10-23T23:01:35.140Z,64.50
2017-10-23T23:04:03.059Z,64.50
2017-10-23T23:06:31.062Z,64.60
2017-10-23T23:08:58.972Z,64.70
2017-10-23T23:11:26.849Z,64.60
2017-10-23T23:13:54.709Z,64.40
2017-10-23T23:16:22.783Z,64.40
2017-10-23T23:18:50.652Z,64.70
2017-10-23T23:21:18.524Z,64.60
2017-10-23T23:23:46.499Z,64.60
2017-10-23T23:26:14.728Z,64.60
2017-10-23T23:28:43.334Z,65.30
2017-10-23T23:31:11.941Z,64.60
2017-10-23T23:33:39.778Z,64.60
2017-10-23T23:36:08.388Z,64.50
2017-10-23T23:38:36.254Z,64.50
2017-10-23T23:41:04.187Z,64.50
2017-10-23T23:43:32.835Z,64.80
2017-10-23T23:46:00.735Z,64.80
2017-10-23T23:48:29.360Z,65.00
2017-10-23T23:50:57.156Z,64.90
2017-10-23T23:53:25.063Z,64.90
2017-10-23T23:55:52.951Z,65.00
2017-10-23T23:58:20.798Z,65.00
